Time;durP1;ratioP1;P1;durP2;ratioP2;P2;SDS_P1;SDS_P2;PMS_P1;PMS_P2;Temp;Humidity;BMP_temperature;BMP_pressure;BME280_temperature;BME280_humidity;BME280_pressure;Samples;Min_cycle;Max_cycle;Signal;HPM_P1;HPM_P2
2022/11/22 00:01:04;;;;;;;7.40;2.30;;;;;;;17.05;53.97;100577.53;1870214;76;21053;-48
2022/11/22 00:03:33;;;;;;;3.92;2.08;;;;;;;17.03;53.96;100578.60;1845424;78;21058;-49
2022/11/22 00:06:02;;;;;;;7.97;2.67;;;;;;;17.02;53.99;100571.56;1843414;78;21030;-48
2022/11/22 00:08:32;;;;;;;4.08;1.75;;;;;;;17.02;53.96;100572.89;1841387;77;21554;-48
2022/11/22 00:11:00;;;;;;;12.80;2.70;;;;;;;17.04;53.94;100578.95;1841423;77;21054;-48
2022/11/22 00:13:29;;;;;;;6.35;2.12;;;;;;;17.04;53.92;100578.50;1841354;77;21101;-47
2022/11/22 00:16:00;;;;;;;5.55;1.98;;;;;;;17.06;53.90;100569.94;1841988;77;21159;-46
2022/11/22 00:18:30;;;;;;;4.85;2.22;;;;;;;17.08;53.84;100565.36;1843741;76;21030;-48
2022/11/22 00:21:01;;;;;;;5.42;2.35;;;;;;;17.10;53.80;100573.23;1845485;78;21777;-47
2022/11/22 00:23:30;;;;;;;30.77;3.55;;;;;;;17.10;53.75;100573.23;1845149;78;21050;-50
2022/11/22 00:25:59;;;;;;;4.42;2.05;;;;;;;17.11;53.71;100568.27;1844730;78;21003;-44
2022/11/22 00:28:28;;;;;;;3.37;1.90;;;;;;;17.12;53.67;100567.33;1845532;76;21078;-47
2022/11/22 00:30:56;;;;;;;4.72;2.15;;;;;;;17.12;53.65;100560.68;1845334;78;21108;-46
2022/11/22 00:33:25;;;;;;;4.25;1.95;;;;;;;17.15;53.54;100549.80;1868894;76;21122;-47
2022/11/22 00:35:54;;;;;;;4.25;2.00;;;;;;;17.12;53.53;100544.23;1886450;76;21133;-47
2022/11/22 00:38:22;;;;;;;4.55;1.80;;;;;;;17.10;53.55;100542.64;1880070;76;21039;-46
2022/11/22 00:40:51;;;;;;;6.85;2.35;;;;;;;17.09;53.52;100543.59;1876268;76;21039;-46
2022/11/22 00:43:20;;;;;;;4.37;1.95;;;;;;;17.08;53.50;100543.20;1872381;77;21503;-47
2022/11/22 00:45:49;;;;;;;5.05;2.10;;;;;;;17.09;53.36;100540.92;1876351;76;21099;-49
2022/11/22 00:48:17;;;;;;;11.75;2.15;;;;;;;17.09;53.32;100540.44;1879512;75;21033;-49
2022/11/22 00:50:51;;;;;;;5.58;1.70;;;;;;;17.09;53.26;100541.77;1849017;76;21088;-47
2022/11/22 00:53:20;;;;;;;6.83;2.75;;;;;;;17.11;53.10;100539.01;1885511;76;21033;-50
2022/11/22 00:55:49;;;;;;;5.35;2.40;;;;;;;17.12;53.01;100542.05;1891560;76;21107;-50
2022/11/22 00:58:18;;;;;;;6.12;2.15;;;;;;;17.13;52.90;100545.06;1888420;76;21053;-48
2022/11/22 01:00:46;;;;;;;8.23;2.50;;;;;;;17.18;52.75;100545.61;1882532;76;21134;-46
2022/11/22 01:03:15;;;;;;;4.75;2.22;;;;;;;17.23;52.58;100546.14;1871479;76;21041;-47
2022/11/22 01:05:44;;;;;;;3.65;1.95;;;;;;;17.27;52.23;100531.66;1879392;76;21107;-49
2022/11/22 01:08:12;;;;;;;6.15;2.33;;;;;;;17.32;52.21;100538.84;1866483;76;21033;-46
2022/11/22 01:10:41;;;;;;;3.98;1.92;;;;;;;17.36;52.20;100546.13;1873429;76;21107;-48
2022/11/22 01:13:11;;;;;;;4.47;2.02;;;;;;;17.37;52.19;100541.16;1873609;76;21025;-49
2022/11/22 01:15:40;;;;;;;3.15;2.00;;;;;;;17.38;52.18;100541.55;1889780;76;21065;-48
2022/11/22 01:18:09;;;;;;;6.30;2.52;;;;;;;17.38;52.22;100552.20;1892005;76;21487;-48
2022/11/22 01:20:39;;;;;;;6.70;1.80;;;;;;;17.36;52.29;100544.31;1892006;76;21065;-47
2022/11/22 01:23:08;;;;;;;5.58;2.42;;;;;;;17.33;52.41;100553.83;1891481;75;21057;-51
2022/11/22 01:25:36;;;;;;;6.00;2.47;;;;;;;17.30;52.51;100554.07;1878054;75;21080;-47
2022/11/22 01:28:05;;;;;;;3.83;1.90;;;;;;;17.23;52.69;100554.12;1870676;76;21027;-48
2022/11/22 01:30:34;;;;;;;6.58;2.37;;;;;;;17.15;52.88;100556.00;1873587;76;21521;-51
2022/11/22 01:33:03;;;;;;;6.78;2.08;;;;;;;17.12;53.06;100562.01;1874237;76;21053;-47
2022/11/22 01:35:31;;;;;;;7.28;2.30;;;;;;;17.10;53.14;100557.28;1882404;76;21168;-50
2022/11/22 01:38:00;;;;;;;10.68;2.37;;;;;;;17.09;53.18;100550.23;1876393;76;21796;-47
2022/11/22 01:40:29;;;;;;;4.12;2.10;;;;;;;17.09;53.27;100551.56;1874278;76;21157;-51
2022/11/22 01:43:00;;;;;;;10.13;2.70;;;;;;;17.06;53.37;100556.63;1872990;76;21156;-48
2022/11/22 01:45:37;;;;;;;5.62;2.52;;;;;;;17.05;53.49;100542.11;1882605;76;21089;-48
2022/11/22 01:48:09;;;;;;;6.08;2.55;;;;;;;17.07;53.49;100553.48;1870373;76;21056;-51
2022/11/22 01:50:40;;;;;;;5.60;2.10;;;;;;;17.09;53.56;100543.59;1873311;76;21056;-47
2022/11/22 01:53:11;;;;;;;7.95;2.40;;;;;;;17.12;53.53;100538.06;1870289;74;21089;-47
2022/11/22 01:55:41;;;;;;;4.12;2.10;;;;;;;17.17;53.44;100525.27;1875649;76;21097;-49
2022/11/22 01:58:11;;;;;;;5.58;2.20;;;;;;;17.22;53.38;100517.82;1877191;76;21485;-49
2022/11/22 02:00:40;;;;;;;5.55;1.80;;;;;;;17.28;53.29;100516.08;1876886;75;21044;-46
2022/11/22 02:03:12;;;;;;;7.10;2.10;;;;;;;17.32;53.23;100512.72;1880724;76;21056;-48
2022/11/22 02:05:41;;;;;;;8.13;1.95;;;;;;;17.32;53.28;100505.58;1883999;76;21464;-46
2022/11/22 02:08:34;;;;;;;7.87;2.37;;;;;;;17.29;53.38;100511.11;1891652;76;21677;-45
2022/11/22 02:11:04;;;;;;;5.67;2.40;;;;;;;17.26;53.48;100511.31;1848629;76;21055;-46
2022/11/22 02:13:36;;;;;;;7.03;2.15;;;;;;;17.24;53.59;100505.26;1854867;75;21131;-45
2022/11/22 02:16:05;;;;;;;8.88;5.67;;;;;;;17.22;53.69;100509.84;1909181;75;21150;-47
2022/11/22 02:18:38;;;;;;;8.98;3.02;;;;;;;17.23;53.78;100513.38;1905538;75;21050;-51
2022/11/22 02:21:08;;;;;;;6.60;2.27;;;;;;;17.20;53.85;100514.42;1874891;75;21058;-49
2022/11/22 02:23:48;;;;;;;4.50;2.10;;;;;;;17.17;53.95;100513.30;1873924;76;21481;-50
2022/11/22 02:26:17;;;;;;;4.35;2.05;;;;;;;17.16;54.07;100511.13;1860960;75;21138;-47
2022/11/22 02:28:46;;;;;;;4.35;2.10;;;;;;;17.18;54.17;100503.88;1872797;76;21502;-48
2022/11/22 02:31:36;;;;;;;12.53;2.80;;;;;;;17.23;54.37;100501.40;1873116;76;21485;-44
2022/11/22 02:34:05;;;;;;;3.52;1.90;;;;;;;17.23;54.67;100490.27;1866116;75;21055;-47
2022/11/22 02:36:36;;;;;;;6.78;2.30;;;;;;;17.25;54.81;100487.02;1870509;76;21759;-45
2022/11/22 02:39:07;;;;;;;4.28;2.17;;;;;;;17.23;54.94;100491.59;1873356;76;21011;-46
2022/11/22 02:41:37;;;;;;;4.90;2.25;;;;;;;17.20;55.00;100492.30;1874192;76;21537;-47
2022/11/22 02:44:07;;;;;;;4.42;2.40;;;;;;;17.15;55.35;100488.16;1872505;76;21655;-49
2022/11/22 02:46:36;;;;;;;5.15;2.40;;;;;;;17.12;55.67;100472.89;1872579;76;21093;-46
2022/11/22 02:49:05;;;;;;;5.75;2.42;;;;;;;17.08;55.83;100480.23;1870983;76;21706;-44
2022/11/22 02:51:33;;;;;;;6.03;2.83;;;;;;;17.03;55.99;100473.53;1873843;76;21154;-46
2022/11/22 02:54:02;;;;;;;4.75;2.60;;;;;;;16.97;56.17;100488.96;1871102;76;21112;-47
2022/11/22 02:56:30;;;;;;;4.45;2.30;;;;;;;16.93;56.28;100498.12;1871124;76;21150;-47
2022/11/22 02:58:59;;;;;;;7.33;2.45;;;;;;;16.88;56.31;100501.56;1873669;76;21011;-46
2022/11/22 03:01:29;;;;;;;7.92;2.52;;;;;;;16.83;56.38;100501.52;1873710;76;21062;-45
2022/11/22 03:03:58;;;;;;;7.70;2.42;;;;;;;16.78;56.50;100504.44;1876857;75;21099;-45
2022/11/22 03:06:27;;;;;;;7.50;2.60;;;;;;;16.74;56.64;100502.95;1869858;75;21168;-50
2022/11/22 03:08:56;;;;;;;6.92;2.35;;;;;;;16.68;56.81;100510.04;1878170;76;21007;-46
2022/11/22 03:11:25;;;;;;;9.58;2.72;;;;;;;16.63;57.00;100521.45;1876943;76;21020;-46
2022/11/22 03:13:53;;;;;;;5.87;2.70;;;;;;;16.58;57.15;100528.39;1877772;76;21124;-46
2022/11/22 03:16:22;;;;;;;8.45;2.92;;;;;;;16.54;57.31;100530.89;1878967;76;21114;-48
2022/11/22 03:18:51;;;;;;;8.33;2.67;;;;;;;16.51;57.51;100522.66;1878964;76;21043;-50
2022/11/22 03:21:20;;;;;;;6.75;2.80;;;;;;;16.48;57.81;100528.66;1878962;76;21075;-49
2022/11/22 03:23:49;;;;;;;6.95;2.62;;;;;;;16.47;57.94;100522.95;1878939;76;21007;-47
2022/11/22 03:26:17;;;;;;;7.72;2.92;;;;;;;16.46;58.13;100518.13;1896617;75;21083;-50
2022/11/22 03:28:46;;;;;;;7.42;2.65;;;;;;;16.45;58.21;100505.81;1909252;75;21156;-49
2022/11/22 03:31:15;;;;;;;7.47;2.67;;;;;;;16.44;58.31;100500.11;1909330;75;21003;-47
2022/11/22 03:33:44;;;;;;;7.50;2.58;;;;;;;16.43;58.42;100509.02;1909253;75;21031;-49
2022/11/22 03:36:12;;;;;;;7.22;2.50;;;;;;;16.42;58.58;100509.16;1909366;75;21110;-46
2022/11/22 03:38:41;;;;;;;12.15;3.35;;;;;;;16.41;58.67;100513.59;1909439;75;21082;-47
2022/11/22 03:41:10;;;;;;;6.33;2.62;;;;;;;16.43;58.81;100506.36;1909231;75;21039;-49
2022/11/22 03:43:39;;;;;;;7.87;2.65;;;;;;;16.47;58.78;100497.25;1909208;75;21035;-51
2022/11/22 03:46:09;;;;;;;8.50;2.85;;;;;;;16.50;58.95;100532.91;1909432;75;21098;-51
2022/11/22 03:48:38;;;;;;;8.28;3.08;;;;;;;16.51;59.12;100535.95;1908813;75;21086;-50
2022/11/22 03:51:07;;;;;;;9.43;3.37;;;;;;;16.52;59.21;100530.98;1909237;75;21039;-49
2022/11/22 03:53:36;;;;;;;9.08;3.10;;;;;;;16.54;59.09;100526.91;1909139;75;21200;-50
2022/11/22 03:56:05;;;;;;;7.87;3.08;;;;;;;16.57;59.06;100538.19;1879645;75;21007;-49
2022/11/22 03:58:35;;;;;;;6.37;2.95;;;;;;;16.56;59.02;100536.50;1877105;76;21043;-50
2022/11/22 04:01:04;;;;;;;14.70;3.22;;;;;;;16.57;58.96;100549.30;1876919;76;21040;-50
2022/11/22 04:03:32;;;;;;;8.93;3.15;;;;;;;16.53;59.02;100557.95;1868360;76;21573;-49
2022/11/22 04:06:01;;;;;;;9.60;3.50;;;;;;;16.53;59.04;100552.64;1867121;77;21130;-50
2022/11/22 04:08:30;;;;;;;9.90;3.15;;;;;;;16.51;59.12;100554.55;1867250;77;21032;-45
2022/11/22 04:10:59;;;;;;;8.83;3.05;;;;;;;16.47;59.22;100534.46;1867291;77;21023;-51
2022/11/22 04:15:05;;;;;;;8.50;3.33;;;;;;;16.42;59.34;100549.02;1867217;77;21540;-51
2022/11/22 04:15:58;;;;;;;6.50;2.65;;;;;;;16.37;59.47;100543.50;1868972;76;21095;-44
2022/11/22 04:18:26;;;;;;;12.58;3.72;;;;;;;16.32;59.76;100558.05;1876591;76;21038;-48
2022/11/22 04:23:42;;;;;;;10.28;2.67;;;;;;;16.29;59.84;100536.53;1903136;75;21023;-47
2022/11/22 04:26:10;;;;;;;10.03;2.77;;;;;;;16.28;59.84;100535.30;1877151;76;21063;-51
2022/11/22 04:28:39;;;;;;;10.20;3.58;;;;;;;16.26;59.91;100524.77;1876951;76;21137;-47
2022/11/22 04:33:55;;;;;;;7.60;3.12;;;;;;;16.19;60.16;100516.83;1877000;76;21059;-45
2022/11/22 04:36:24;;;;;;;10.58;3.33;;;;;;;16.15;60.29;100518.83;1883961;75;21067;-46
2022/11/22 04:38:53;;;;;;;8.85;3.60;;;;;;;16.12;60.48;100507.55;1900404;75;21035;-46
2022/11/22 04:41:22;;;;;;;10.00;3.55;;;;;;;16.09;60.64;100509.11;1901579;75;21035;-47
2022/11/22 04:46:37;;;;;;;12.28;4.28;;;;;;;16.10;60.85;100500.16;1903853;75;21112;-49
2022/11/22 04:49:05;;;;;;;14.78;4.22;;;;;;;16.11;60.87;100492.59;1905777;75;21055;-49
2022/11/22 04:54:20;;;;;;;8.73;3.47;;;;;;;16.10;60.92;100481.58;1903166;75;21028;-48
2022/11/22 04:56:49;;;;;;;12.78;3.52;;;;;;;16.09;60.97;100494.02;1903840;75;21067;-48
2022/11/22 04:59:18;;;;;;;14.68;4.33;;;;;;;16.05;61.06;100504.47;1900200;75;21066;-48
2022/11/22 05:01:46;;;;;;;17.27;4.92;;;;;;;16.05;61.14;100471.27;1899649;75;21129;-50
2022/11/22 05:04:15;;;;;;;13.48;4.37;;;;;;;16.06;61.22;100476.94;1883704;75;21020;-47
2022/11/22 05:06:44;;;;;;;12.68;4.05;;;;;;;16.06;61.35;100498.19;1894577;75;21078;-51
2022/11/22 05:09:12;;;;;;;14.98;4.33;;;;;;;16.08;61.45;100517.52;1880179;76;21036;-48
2022/11/22 05:11:41;;;;;;;12.80;4.28;;;;;;;16.08;61.58;100517.52;1878304;76;21177;-49
2022/11/22 05:14:10;;;;;;;12.37;3.62;;;;;;;16.07;61.70;100535.76;1880282;76;21036;-48
2022/11/22 05:16:39;;;;;;;17.05;3.72;;;;;;;16.06;62.07;100565.91;1880031;76;21075;-47
2022/11/22 05:19:08;;;;;;;9.68;3.70;;;;;;;16.06;62.46;100585.83;1880072;76;21117;-48
2022/11/22 05:21:36;;;;;;;10.75;3.85;;;;;;;16.09;62.31;100594.09;1879160;76;21153;-47
2022/11/22 05:24:05;;;;;;;21.57;6.40;;;;;;;16.14;62.30;100584.88;1879707;76;21114;-51
2022/11/22 05:26:36;;;;;;;11.73;4.12;;;;;;;16.30;62.25;100563.45;1880938;76;21150;-51
2022/11/22 05:29:10;;;;;;;14.70;4.28;;;;;;;16.57;62.20;100578.05;1880712;76;21145;-51
2022/11/22 05:31:41;;;;;;;11.08;3.58;;;;;;;16.84;61.91;100581.64;1876508;76;21161;-47
2022/11/22 05:34:10;;;;;;;11.10;3.85;;;;;;;16.97;61.74;100563.43;1879104;76;21231;-48
2022/11/22 05:36:38;;;;;;;8.80;3.50;;;;;;;17.01;61.80;100567.22;1890006;75;21091;-49
2022/11/22 05:39:07;;;;;;;10.10;4.17;;;;;;;16.98;62.07;100575.76;1900768;75;21180;-47
2022/11/22 05:41:36;;;;;;;8.30;4.37;;;;;;;16.93;62.35;100571.25;1886561;75;21093;-48
2022/11/22 05:44:04;;;;;;;8.63;3.83;;;;;;;16.89;62.70;100553.78;1879912;76;21102;-46
2022/11/22 05:46:33;;;;;;;10.68;4.95;;;;;;;16.87;63.18;100560.17;1881588;76;21098;-45
2022/11/22 05:49:02;;;;;;;10.88;4.40;;;;;;;16.87;63.52;100560.17;1881972;76;21211;-50
2022/11/22 05:51:30;;;;;;;11.60;4.42;;;;;;;16.88;65.25;100609.76;1880592;76;21031;-47
2022/11/22 05:53:59;;;;;;;15.63;4.30;;;;;;;16.87;66.33;100632.81;1880519;76;21138;-43
2022/11/22 05:56:28;;;;;;;17.55;4.78;;;;;;;16.88;66.52;100639.85;1892822;75;21136;-48
2022/11/22 05:58:57;;;;;;;12.45;4.20;;;;;;;16.91;66.29;100639.66;1885932;75;21231;-48
2022/11/22 06:01:26;;;;;;;12.78;4.95;;;;;;;16.96;66.56;100620.23;1888159;75;21281;-51
2022/11/22 06:03:55;;;;;;;16.35;6.05;;;;;;;17.03;66.26;100619.34;1900470;75;21121;-49
2022/11/22 06:06:23;;;;;;;10.82;4.58;;;;;;;17.11;65.93;100590.88;1887531;75;21207;-49
2022/11/22 06:08:52;;;;;;;13.28;5.03;;;;;;;17.22;65.72;100589.66;1892431;75;20992;-47
2022/11/22 06:11:24;;;;;;;12.13;5.47;;;;;;;17.32;65.66;100604.05;1902620;75;21039;-47
2022/11/22 06:13:55;;;;;;;11.03;4.53;;;;;;;17.40;65.81;100611.98;1891222;75;21133;-46
2022/11/22 06:16:26;;;;;;;9.88;4.37;;;;;;;17.38;66.42;100615.23;1889193;75;21117;-46
2022/11/22 06:18:55;;;;;;;13.93;4.40;;;;;;;17.39;66.40;100600.45;1887719;76;21069;-46
2022/11/22 06:21:25;;;;;;;10.38;4.58;;;;;;;17.44;66.36;100611.64;1889947;76;21100;-47
2022/11/22 06:23:55;;;;;;;11.28;3.77;;;;;;;17.51;66.23;100586.78;1890232;76;21156;-47
2022/11/22 06:26:25;;;;;;;9.23;3.98;;;;;;;17.66;65.97;100578.19;1882825;75;21108;-46
2022/11/22 06:28:54;;;;;;;8.50;3.37;;;;;;;17.83;65.66;100578.30;1890211;75;21031;-46
2022/11/22 06:31:27;;;;;;;12.18;4.20;;;;;;;17.98;65.41;100569.71;1895042;75;21097;-46
2022/11/22 06:34:01;;;;;;;10.25;4.92;;;;;;;18.10;65.15;100555.02;1897313;75;21144;-50
2022/11/22 06:36:32;;;;;;;10.75;3.80;;;;;;;18.17;64.92;100549.22;1881792;75;21187;-50
2022/11/22 06:39:04;;;;;;;13.58;4.45;;;;;;;18.29;64.68;100546.50;1887713;75;21104;-49
2022/11/22 06:41:35;;;;;;;10.55;3.58;;;;;;;18.38;64.40;100571.63;1888711;75;21137;-49
2022/11/22 06:44:08;;;;;;;8.43;3.47;;;;;;;18.39;64.05;100591.12;1887508;76;21023;-46
2022/11/22 06:46:36;;;;;;;;;;;;;;;18.40;63.84;100602.17;1886102;76;21082;-47
2022/11/22 06:49:05;;;;;;;4.47;2.20;;;;;;;18.43;63.62;100592.13;1878671;76;20175;-45
2022/11/22 06:51:34;;;;;;;7.45;3.15;;;;;;;18.52;63.15;100582.11;1879299;76;21045;-45
2022/11/22 06:54:03;;;;;;;7.35;2.90;;;;;;;18.56;63.01;100584.56;1880408;76;21046;-47
2022/11/22 06:56:37;;;;;;;6.28;2.90;;;;;;;18.55;62.92;100578.35;1895544;75;21167;-46
2022/11/22 06:59:07;;;;;;;9.98;3.62;;;;;;;18.60;62.89;100566.86;1889488;75;21058;-46
2022/11/22 07:01:37;;;;;;;8.10;3.12;;;;;;;18.65;62.84;100562.53;1893775;75;21461;-48
2022/11/22 07:04:06;;;;;;;9.55;3.25;;;;;;;18.78;62.61;100561.95;1901773;75;21484;-46
2022/11/22 07:06:38;;;;;;;7.17;2.65;;;;;;;18.85;62.42;100555.69;1894110;75;21465;-47
2022/11/22 07:09:09;;;;;;;7.33;2.62;;;;;;;18.83;62.20;100555.83;1898575;75;21450;-47
2022/11/22 07:11:39;;;;;;;7.03;2.15;;;;;;;18.92;61.94;100544.06;1893564;75;21022;-48
2022/11/22 07:14:07;;;;;;;6.08;3.00;;;;;;;19.02;61.69;100528.56;1880049;76;21050;-49
2022/11/22 07:16:38;;;;;;;8.35;3.33;;;;;;;19.14;61.45;100522.74;1889395;76;21013;-45
2022/11/22 07:19:07;;;;;;;7.37;2.77;;;;;;;19.26;61.27;100532.95;1893309;76;21043;-46
2022/11/22 07:21:39;;;;;;;5.62;2.75;;;;;;;19.25;60.99;100534.75;1889063;76;21039;-47
2022/11/22 07:24:08;;;;;;;6.15;2.15;;;;;;;19.29;60.94;100536.23;1879663;76;21058;-47
2022/11/22 07:26:37;;;;;;;6.67;2.90;;;;;;;19.33;60.87;100523.95;1887414;75;21112;-49
2022/11/22 07:29:06;;;;;;;5.60;2.20;;;;;;;19.36;60.76;100526.39;1883203;76;21054;-49
2022/11/22 07:31:35;;;;;;;8.95;2.62;;;;;;;19.32;60.61;100548.97;1882133;76;21066;-47
2022/11/22 07:34:03;;;;;;;8.85;2.37;;;;;;;19.21;59.13;100553.32;1879326;76;21506;-48
2022/11/22 07:36:32;;;;;;;4.17;1.98;;;;;;;19.10;58.79;100558.65;1879668;76;21023;-49
2022/11/22 07:39:02;;;;;;;9.03;1.98;;;;;;;19.21;58.90;100556.48;1870060;76;21158;-47
2022/11/22 07:41:31;;;;;;;5.62;1.62;;;;;;;19.50;58.42;100562.20;1869389;76;21169;-49
2022/11/22 07:44:00;;;;;;;7.95;2.08;;;;;;;19.77;58.05;100564.98;1869609;76;21101;-46
2022/11/22 07:46:31;;;;;;;6.58;1.82;;;;;;;20.23;57.25;100562.57;1867204;76;21039;-47
2022/11/22 07:49:01;;;;;;;10.75;2.22;;;;;;;20.79;55.87;100562.36;1869598;76;21113;-47
2022/11/22 07:51:30;;;;;;;6.20;1.45;;;;;;;20.80;55.77;100566.75;1869720;76;21465;-48
2022/11/22 07:53:59;;;;;;;6.97;1.60;;;;;;;20.55;55.14;100581.30;1850563;76;21059;-47
2022/11/22 07:56:28;;;;;;;7.08;1.80;;;;;;;20.13;54.52;100601.73;1840385;77;21056;-45
2022/11/22 07:58:56;;;;;;;3.33;1.45;;;;;;;19.84;54.90;100592.41;1812755;79;21047;-45
2022/11/22 08:01:25;;;;;;;8.83;1.70;;;;;;;19.72;55.27;100584.53;1814757;77;21047;-49
2022/11/22 08:03:54;;;;;;;7.25;1.50;;;;;;;19.76;55.48;100584.67;1828655;77;21051;-48
2022/11/22 08:06:23;;;;;;;7.42;2.25;;;;;;;19.86;55.51;100582.95;1838732;77;21078;-48
2022/11/22 08:08:51;;;;;;;4.62;1.57;;;;;;;19.95;54.63;100577.35;1861659;77;21126;-47
2022/11/22 08:11:20;;;;;;;9.20;2.70;;;;;;;19.86;53.99;100578.94;1853886;76;21090;-46
2022/11/22 08:13:49;;;;;;;5.10;1.22;;;;;;;19.85;54.51;100578.09;1839054;77;21062;-46
2022/11/22 08:16:18;;;;;;;5.05;1.60;;;;;;;19.81;54.22;100574.48;1839043;77;21035;-50
2022/11/22 08:18:48;;;;;;;5.35;1.07;;;;;;;19.68;54.17;100570.08;1841265;76;21133;-47
2022/11/22 08:21:19;;;;;;;3.95;1.40;;;;;;;19.60;54.38;100564.98;1863759;76;21138;-47
2022/11/22 08:23:48;;;;;;;4.75;1.52;;;;;;;19.56;54.49;100567.04;1839436;76;21548;-47
2022/11/22 08:26:19;;;;;;;8.05;1.80;;;;;;;19.53;54.63;100576.66;1852787;77;21466;-47
2022/11/22 08:28:48;;;;;;;5.33;1.42;;;;;;;19.50;54.69;100586.23;1855523;76;21239;-46
2022/11/22 08:31:18;;;;;;;6.08;1.20;;;;;;;19.46;54.24;100579.44;1866675;76;21094;-48
2022/11/22 08:33:48;;;;;;;3.35;1.20;;;;;;;19.27;53.67;100584.89;1869337;76;21051;-46
2022/11/22 08:36:16;;;;;;;7.20;1.30;;;;;;;19.15;53.96;100584.50;1869863;76;21041;-48
2022/11/22 08:38:45;;;;;;;3.70;1.20;;;;;;;19.07;54.09;100567.76;1881443;75;21046;-50
2022/11/22 08:41:14;;;;;;;3.45;1.62;;;;;;;19.03;54.29;100556.96;1890255;75;21055;-50
2022/11/22 08:43:43;;;;;;;6.83;2.12;;;;;;;19.04;54.58;100538.63;1894203;75;21071;-51
2022/11/22 08:46:12;;;;;;;5.22;1.40;;;;;;;19.06;54.73;100535.36;1894787;75;21075;-48
2022/11/22 08:48:40;;;;;;;5.60;1.95;;;;;;;19.05;54.73;100546.14;1882485;75;21039;-51
2022/11/22 08:51:12;;;;;;;7.00;1.77;;;;;;;19.01;54.87;100553.53;1891699;75;21116;-48
2022/11/22 08:53:43;;;;;;;3.87;1.40;;;;;;;18.96;54.81;100558.86;1882181;76;21047;-47
2022/11/22 08:56:14;;;;;;;4.92;1.62;;;;;;;18.81;54.63;100557.77;1886502;75;21389;-51
2022/11/22 08:58:43;;;;;;;8.98;2.40;;;;;;;18.67;54.84;100565.44;1890354;75;21380;-50
2022/11/22 09:01:14;;;;;;;5.50;1.47;;;;;;;18.63;55.14;100551.14;1886468;75;21152;-50
2022/11/22 09:03:44;;;;;;;6.28;2.15;;;;;;;18.55;55.45;100581.51;1877576;76;21050;-49
2022/11/22 09:06:15;;;;;;;7.15;1.70;;;;;;;18.45;55.82;100574.20;1890461;75;21113;-48
2022/11/22 09:08:44;;;;;;;13.20;3.52;;;;;;;18.47;56.05;100557.61;1889562;75;21031;-45
2022/11/22 09:11:16;;;;;;;9.75;1.75;;;;;;;18.50;56.20;100538.72;1886269;75;21109;-47
2022/11/22 09:13:45;;;;;;;5.80;2.00;;;;;;;18.55;56.33;100553.52;1887325;75;21019;-46
2022/11/22 09:16:19;;;;;;;5.85;1.85;;;;;;;18.58;56.51;100579.95;1882587;76;21101;-46
2022/11/22 09:18:49;;;;;;;6.90;2.15;;;;;;;18.40;57.32;100573.69;1880001;75;21039;-47
2022/11/22 09:21:19;;;;;;;5.10;2.30;;;;;;;18.28;57.80;100554.63;1890502;75;21496;-46
2022/11/22 09:23:52;;;;;;;7.58;2.22;;;;;;;18.29;57.88;100534.99;1892081;75;21015;-47
2022/11/22 09:26:23;;;;;;;10.48;2.47;;;;;;;18.29;58.25;100521.67;1895667;75;21055;-47
2022/11/22 09:28:52;;;;;;;7.83;2.07;;;;;;;18.30;58.40;100536.70;1894205;75;21098;-50
2022/11/22 09:31:23;;;;;;;16.42;2.77;;;;;;;18.34;58.55;100547.50;1892705;75;21121;-49
2022/11/22 09:33:51;;;;;;;4.80;1.60;;;;;;;18.33;58.67;100536.00;1893234;75;21031;-47
2022/11/22 09:36:22;;;;;;;7.00;2.15;;;;;;;18.43;58.58;100541.48;1893005;75;21113;-46
2022/11/22 09:38:52;;;;;;;3.98;2.17;;;;;;;18.38;58.56;100547.63;1888867;75;21198;-48
2022/11/22 09:41:32;;;;;;;5.40;1.67;;;;;;;18.33;58.74;100547.12;1870078;76;21546;-48
2022/11/22 09:44:06;;;;;;;8.55;2.05;;;;;;;18.36;58.76;100546.06;1880500;75;21698;-48
2022/11/22 09:46:40;;;;;;;5.83;2.15;;;;;;;18.40;58.85;100533.70;1857584;76;21172;-47
2022/11/22 09:49:24;;;;;;;11.80;2.25;;;;;;;18.36;58.90;100530.91;1882705;75;21473;-50
2022/11/22 09:52:10;;;;;;;5.75;2.50;;;;;;;18.38;58.94;100523.64;1875205;76;21094;-50
2022/11/22 09:54:45;;;;;;;9.20;2.47;;;;;;;18.36;59.04;100533.58;1867957;76;21057;-47
2022/11/22 09:57:16;;;;;;;4.60;1.70;;;;;;;18.41;58.95;100523.42;1881639;76;21078;-45
2022/11/22 09:59:48;;;;;;;5.40;1.77;;;;;;;18.41;58.94;100527.91;1884937;75;21031;-48
2022/11/22 10:02:22;;;;;;;7.62;1.40;;;;;;;18.36;58.83;100522.07;1878172;75;21173;-46
2022/11/22 10:04:57;;;;;;;8.00;1.67;;;;;;;18.33;58.82;100528.00;1868371;76;21097;-47
2022/11/22 10:07:37;;;;;;;6.08;1.40;;;;;;;18.31;58.78;100529.06;1868094;76;21105;-46
2022/11/22 10:10:10;;;;;;;3.42;1.45;;;;;;;18.24;58.82;100525.16;1865980;76;21506;-48
2022/11/22 10:13:06;;;;;;;9.75;1.72;;;;;;;18.16;58.86;100523.06;1858406;76;21044;-51
2022/11/22 10:15:54;;;;;;;5.35;1.90;;;;;;;18.10;58.92;100516.38;1867195;76;21071;-51
2022/11/22 10:18:43;;;;;;;7.72;1.72;;;;;;;18.04;59.07;100520.84;1864013;76;21055;-49
2022/11/22 10:21:13;;;;;;;8.93;1.62;;;;;;;17.99;59.21;100519.48;1856979;76;21047;-49
2022/11/22 10:23:44;;;;;;;7.62;1.70;;;;;;;18.00;59.17;100518.50;1895224;75;21018;-49
2022/11/22 10:26:25;;;;;;;8.78;1.57;;;;;;;17.91;59.38;100521.38;1880231;75;21482;-47
2022/11/22 10:29:16;;;;;;;4.28;1.35;;;;;;;17.84;59.56;100519.61;1875226;75;21085;-48
2022/11/22 10:31:54;;;;;;;5.58;1.27;;;;;;;17.79;59.76;100530.22;1877657;75;21051;-49
2022/11/22 10:34:28;;;;;;;6.28;1.50;;;;;;;17.70;59.88;100536.57;1864900;77;21047;-49
2022/11/22 10:37:15;;;;;;;6.90;1.30;;;;;;;17.63;59.91;100542.00;1865372;77;21044;-48
2022/11/22 10:39:52;;;;;;;6.55;1.65;;;;;;;17.60;59.93;100532.88;1904081;75;21580;-46
2022/11/22 10:42:24;;;;;;;5.58;1.62;;;;;;;17.54;59.91;100530.19;1865194;75;21520;-46
2022/11/22 10:45:04;;;;;;;6.95;1.70;;;;;;;17.52;59.93;100536.10;1889907;75;21481;-47
2022/11/22 10:48:02;;;;;;;9.30;2.40;;;;;;;17.52;59.88;100529.91;1880295;76;21180;-48
2022/11/22 10:50:55;;;;;;;7.20;2.50;;;;;;;17.48;59.88;100529.27;1891736;76;21078;-46
2022/11/22 10:53:46;;;;;;;6.92;1.57;;;;;;;17.47;60.05;100520.09;1861201;77;21089;-45
2022/11/22 10:56:27;;;;;;;13.55;2.85;;;;;;;17.41;60.39;100512.52;1887801;76;21039;-44
2022/11/22 10:59:01;;;;;;;4.85;1.35;;;;;;;17.40;60.49;100509.52;1887187;75;21571;-44
2022/11/22 11:01:47;;;;;;;13.30;7.97;;;;;;;17.42;60.61;100507.59;1887017;76;21116;-47
2022/11/22 11:04:18;;;;;;;18.77;10.88;;;;;;;17.41;61.10;100501.42;1887221;76;21509;-44
2022/11/22 11:06:49;;;;;;;44.93;34.60;;;;;;;17.37;61.21;100510.56;1882166;75;21050;-48
2022/11/22 11:09:33;;;;;;;11.90;5.97;;;;;;;17.32;61.36;100518.89;1883545;76;21006;-46
2022/11/22 11:12:04;;;;;;;8.58;2.72;;;;;;;17.23;62.02;100534.66;1867679;76;21580;-44
2022/11/22 11:14:45;;;;;;;7.12;2.10;;;;;;;17.03;63.24;100549.34;1892850;75;21172;-48
2022/11/22 11:17:22;;;;;;;8.10;2.62;;;;;;;16.88;63.79;100550.77;1905748;75;21086;-46
2022/11/22 11:19:54;;;;;;;9.48;1.95;;;;;;;16.73;64.70;100557.11;1905704;75;21134;-47
2022/11/22 11:22:26;;;;;;;5.25;1.67;;;;;;;16.56;66.21;100547.13;1892383;75;21118;-46
2022/11/22 11:24:54;;;;;;;8.90;2.20;;;;;;;16.46;66.39;100554.00;1897561;75;21113;-47
2022/11/22 11:27:26;;;;;;;6.22;1.98;;;;;;;16.33;67.90;100551.30;1905673;75;21078;-48
2022/11/22 11:30:00;;;;;;;8.60;2.27;;;;;;;16.23;68.06;100546.24;1908183;75;21061;-48
2022/11/22 11:32:29;;;;;;;12.07;2.40;;;;;;;16.17;68.40;100540.83;1900922;75;21111;-46
2022/11/22 11:35:04;;;;;;;9.70;2.25;;;;;;;16.16;68.73;100535.16;1885744;76;21050;-48
2022/11/22 11:37:35;;;;;;;4.78;1.75;;;;;;;16.10;69.17;100530.26;1885127;75;21001;-49
2022/11/22 11:40:06;;;;;;;6.97;2.30;;;;;;;16.01;69.93;100534.36;1881492;76;21513;-47
2022/11/22 11:42:35;;;;;;;8.08;1.80;;;;;;;15.91;71.35;100528.41;1875888;76;21126;-47
2022/11/22 11:45:28;;;;;;;8.00;3.55;;;;;;;15.87;71.64;100521.60;1875828;75;21026;-49
2022/11/22 11:47:57;;;;;;;6.22;2.30;;;;;;;15.85;71.27;100527.49;1876266;75;21029;-45
2022/11/22 11:50:33;;;;;;;7.05;2.17;;;;;;;15.86;70.90;100533.16;1869534;76;21061;-44
2022/11/22 11:53:07;;;;;;;6.17;2.87;;;;;;;15.81;71.00;100534.31;1872761;76;21131;-48